| time (UTC) | temp C | wind direction | speed KPH | gust KPH | rain 1hr cm | rain 24hr cm | rain mn cm | humidity % | barometer mb |
| 20260831093932 | 11 | 205 | 0.0 | 0.0 | 0.00 | 0.00 | 0.00 | 71 | 1030.8 |
| 20260831093426 | 12 | 222 | 0.0 | 0.0 | 0.00 | 0.00 | 0.00 | 71 | 1030.4 |
| 20260831092923 | 12 | 191 | 1.6 | 1.6 | 0.00 | 0.00 | 0.00 | 69 | 1030.3 |
| 20260831092419 | 12 | 200 | 0.0 | 0.0 | 0.00 | 0.00 | 0.00 | 70 | 1030.5 |
| 20260831091914 | 12 | 220 | 0.0 | 0.0 | 0.00 | 0.00 | 0.00 | 68 | 1030.4 |
| 20260831091409 | 12 | 182 | 1.6 | 1.6 | 0.00 | 0.00 | 0.00 | 68 | 1030.5 |
| 20260831090904 | 12 | 199 | 0.0 | 0.0 | 0.00 | 0.00 | 0.00 | 70 | 1030.4 |
| 20260831090401 | 11 | 206 | 0.0 | 0.0 | 0.00 | 0.00 | 0.00 | 72 | 1030.4 |
| 20260831085857 | 11 | 208 | 0.0 | 1.6 | 0.00 | 0.00 | 0.00 | 74 | 1030.5 |
| 20260831085356 | 12 | 223 | 0.0 | 0.0 | 0.00 | 0.00 | 0.00 | 73 | 1030.4 |
| 20260831084856 | 12 | 208 | 0.0 | 0.0 | 0.00 | 0.00 | 0.00 | 72 | 1030.5 |
| 20260831084352 | 12 | 199 | 1.6 | 3.2 | 0.00 | 0.00 | 0.00 | 67 | 1030.4 |
| 20260831083849 | 11 | 212 | 0.0 | 0.0 | 0.00 | 0.00 | 0.00 | 72 | 1030.4 |
| 20260831083344 | 11 | 205 | 0.0 | 0.0 | 0.00 | 0.00 | 0.00 | 74 | 1030.7 |
| 20260831082842 | 11 | 223 | 0.0 | 0.0 | 0.00 | 0.00 | 0.00 | 75 | 1030.7 |
| 20260831082337 | 11 | 214 | 0.0 | 0.0 | 0.00 | 0.00 | 0.00 | 74 | 1030.4 |
| 20260831081833 | 12 | 230 | 0.0 | 0.0 | 0.00 | 0.00 | 0.00 | 71 | 1030.7 |
| 20260831081329 | 12 | 210 | 0.0 | 0.0 | 0.00 | 0.00 | 0.00 | 72 | 1030.8 |
| 20260831080825 | 12 | 228 | 1.6 | 1.6 | 0.00 | 0.00 | 0.00 | 72 | 1030.9 |
| 20260831080325 | 12 | 217 | 0.0 | 0.0 | 0.00 | 0.00 | 0.00 | 69 | 1031.0 |
| 20260831075820 | 12 | 204 | 0.0 | 1.6 | 0.00 | 0.00 | 0.00 | 67 | 1030.8 |
| 20260831075315 | 12 | 208 | 0.0 | 0.0 | 0.00 | 0.00 | 0.00 | 69 | 1030.8 |
| 20260831074810 | 13 | 222 | 0.0 | 0.0 | 0.00 | 0.00 | 0.00 | 68 | 1031.0 |
| 20260831074308 | 13 | 226 | 1.6 | 1.6 | 0.00 | 0.00 | 0.00 | 68 | 1031.0 |
| 20260831073805 | 13 | 200 | 0.0 | 0.0 | 0.00 | 0.00 | 0.00 | 65 | 1031.2 |
| 20260831073303 | 13 | 148 | 1.6 | 1.6 | 0.00 | 0.00 | 0.00 | 69 | 1031.4 |
| 20260831072759 | 13 | 208 | 0.0 | 0.0 | 0.00 | 0.00 | 0.00 | 68 | 1031.0 |
| 20260831072255 | 13 | 219 | 0.0 | 1.6 | 0.00 | 0.00 | 0.00 | 68 | 1031.3 |
| 20260831071750 | 12 | 188 | 3.2 | 3.2 | 0.00 | 0.00 | 0.00 | 72 | 1031.4 |
| 20260831071244 | 13 | 193 | 1.6 | 1.6 | 0.00 | 0.00 | 0.00 | 69 | 1031.0 |
| 20260831070744 | 13 | 238 | 1.6 | 1.6 | 0.00 | 0.00 | 0.00 | 68 | 1031.4 |
| 20260831070243 | 13 | 223 | 1.6 | 1.6 | 0.00 | 0.00 | 0.00 | 69 | 1031.2 |
| 20260831065742 | 14 | 222 | 0.0 | 0.0 | 0.00 | 0.00 | 0.00 | 69 | 1031.3 |
| 20260831065241 | 14 | 151 | 1.6 | 3.2 | 0.00 | 0.00 | 0.00 | 59 | 1031.2 |
| 20260831064736 | 13 | 180 | 3.2 | 3.2 | 0.00 | 0.00 | 0.00 | 62 | 1031.5 |
| 20260831064231 | 13 | 196 | 1.6 | 1.6 | 0.00 | 0.00 | 0.00 | 64 | 1031.4 |
| 20260831063727 | 13 | 203 | 0.0 | 0.0 | 0.00 | 0.00 | 0.00 | 68 | 1031.4 |
| 20260831063222 | 13 | 210 | 0.0 | 0.0 | 0.00 | 0.00 | 0.00 | 69 | 1031.8 |
| 20260831062722 | 13 | 223 | 0.0 | 0.0 | 0.00 | 0.00 | 0.00 | 68 | 1031.8 |
| 20260831062217 | 14 | 185 | 1.6 | 1.6 | 0.00 | 0.00 | 0.00 | 60 | 1031.5 |
| 20260831061715 | 13 | 219 | 0.0 | 1.6 | 0.00 | 0.00 | 0.00 | 65 | 1032.2 |
| 20260831061211 | 14 | 204 | 0.0 | 0.0 | 0.00 | 0.00 | 0.00 | 66 | 1031.8 |
| 20260831060707 | 14 | 221 | 0.0 | 0.0 | 0.00 | 0.00 | 0.00 | 64 | 1032.2 |
| 20260831060206 | 15 | 213 | 0.0 | 0.0 | 0.00 | 0.00 | 0.00 | 61 | 1032.1 |
| 20260831055701 | 15 | 200 | 0.0 | 1.6 | 0.00 | 0.10 | 0.10 | 60 | 1032.1 |
| 20260831055156 | 16 | 190 | 3.2 | 3.2 | 0.00 | 0.10 | 0.10 | 58 | 1031.9 |
| 20260831054656 | 16 | 228 | 3.2 | 3.2 | 0.00 | 0.10 | 0.10 | 57 | 1031.9 |
| 20260831054155 | 15 | 172 | 4.8 | 4.8 | 0.00 | 0.10 | 0.10 | 59 | 1032.2 |
| 20260831053650 | 15 | 186 | 0.0 | 1.6 | 0.00 | 0.10 | 0.10 | 60 | 1031.9 |
| 20260831053149 | 15 | 210 | 1.6 | 3.2 | 0.00 | 0.10 | 0.10 | 62 | 1032.2 |
| 20260831052648 | 15 | 180 | 1.6 | 3.2 | 0.00 | 0.10 | 0.10 | 61 | 1032.3 |
| 20260831052148 | 16 | 173 | 4.8 | 4.8 | 0.00 | 0.10 | 0.10 | 57 | 1032.1 |
| 20260831051646 | 16 | 203 | 3.2 | 3.2 | 0.00 | 0.10 | 0.10 | 58 | 1032.3 |
| 20260831051144 | 16 | 218 | 0.0 | 0.0 | 0.00 | 0.10 | 0.10 | 57 | 1032.3 |
| 20260831050639 | 16 | 300 | 4.8 | 4.8 | 0.00 | 0.10 | 0.10 | 57 | 1032.3 |
| 20260831050138 | 16 | 234 | 0.0 | 1.6 | 0.00 | 0.10 | 0.10 | 59 | 1032.6 |
| 20260831045632 | 16 | 243 | 3.2 | 4.8 | 0.00 | 0.10 | 0.10 | 59 | 1032.8 |
| 20260831045127 | 16 | 230 | 0.0 | 1.6 | 0.00 | 0.10 | 0.10 | 59 | 1032.8 |
| 20260831044622 | 16 | 228 | 3.2 | 3.2 | 0.00 | 0.10 | 0.10 | 59 | 1033.1 |
| 20260831044118 | 16 | 220 | 4.8 | 4.8 | 0.00 | 0.10 | 0.10 | 59 | 1033.1 |
| 20260831043613 | 16 | 210 | 4.8 | 8.0 | 0.00 | 0.10 | 0.10 | 59 | 1032.9 |
| 20260831043108 | 16 | 133 | 9.7 | 14.5 | 0.00 | 0.10 | 0.10 | 56 | 1033.1 |
| 20260831042608 | 16 | 169 | 4.8 | 4.8 | 0.00 | 0.10 | 0.10 | 58 | 1032.6 |
| 20260831042103 | 16 | 180 | 3.2 | 3.2 | 0.00 | 0.10 | 0.10 | 58 | 1032.8 |
| 20260831041557 | 15 | 218 | 1.6 | 1.6 | 0.00 | 0.10 | 0.10 | 60 | 1032.6 |
| 20260831041057 | 15 | 205 | 1.6 | 1.6 | 0.00 | 0.10 | 0.10 | 61 | 1032.3 |
| 20260831040551 | 15 | 225 | 3.2 | 3.2 | 0.00 | 0.10 | 0.10 | 60 | 1032.2 |
| 20260831040046 | 15 | 182 | 1.6 | 3.2 | 0.00 | 0.10 | 0.10 | 61 | 1032.2 |
| 20260831035543 | 15 | 183 | 3.2 | 3.2 | 0.00 | 0.10 | 0.10 | 62 | 1031.9 |
| 20260831035038 | 15 | 190 | 0.0 | 1.6 | 0.00 | 0.10 | 0.10 | 60 | 1032.1 |
| 20260831034532 | 15 | 197 | 1.6 | 1.6 | 0.00 | 0.10 | 0.10 | 60 | 1031.8 |
| 20260831034028 | 15 | 205 | 1.6 | 1.6 | 0.00 | 0.10 | 0.10 | 60 | 1031.8 |
| 20260831033523 | 15 | 207 | 0.0 | 1.6 | 0.00 | 0.10 | 0.10 | 59 | 1032.1 |
| 20260831033018 | 15 | 194 | 0.0 | 0.0 | 0.00 | 0.10 | 0.10 | 59 | 1031.9 |
| 20260831032518 | 16 | 219 | 0.0 | 0.0 | 0.00 | 0.10 | 0.10 | 57 | 1031.9 |
| 20260831032014 | 16 | 221 | 0.0 | 0.0 | 0.00 | 0.10 | 0.10 | 56 | 1031.9 |
| 20260831031513 | 16 | 177 | 1.6 | 1.6 | 0.00 | 0.10 | 0.10 | 56 | 1032.1 |
| 20260831031012 | 15 | 193 | 3.2 | 3.2 | 0.00 | 0.10 | 0.10 | 58 | 1031.8 |
| 20260831030512 | 14 | 190 | 1.6 | 1.6 | 0.00 | 0.10 | 0.10 | 61 | 1031.8 |
| 20260831030011 | 13 | 220 | 0.0 | 0.0 | 0.00 | 0.10 | 0.10 | 64 | 1031.5 |
| 20260831025509 | 13 | 217 | 0.0 | 0.0 | 0.00 | 0.10 | 0.10 | 70 | 1031.7 |
| 20260831025004 | 13 | 219 | 0.0 | 0.0 | 0.00 | 0.10 | 0.10 | 66 | 1031.7 |
| 20260831024455 | 13 | 217 | 0.0 | 0.0 | 0.00 | 0.10 | 0.10 | 67 | 1031.7 |
| 20260831023954 | 13 | 189 | 1.6 | 1.6 | 0.00 | 0.10 | 0.10 | 70 | 1031.5 |
| 20260831023452 | 13 | 221 | 0.0 | 0.0 | 0.00 | 0.10 | 0.10 | 72 | 1031.2 |
| 20260831022948 | 13 | 213 | 0.0 | 0.0 | 0.00 | 0.10 | 0.10 | 67 | 1030.9 |
| 20260831022446 | 14 | 204 | 0.0 | 0.0 | 0.00 | 0.10 | 0.10 | 73 | 1031.3 |
| 20260831021942 | 15 | 215 | 0.0 | 0.0 | 0.00 | 0.10 | 0.10 | 71 | 1031.2 |
| 20260831021441 | 15 | 181 | 1.6 | 1.6 | 0.00 | 0.10 | 0.10 | 63 | 1031.3 |
| 20260831020937 | 15 | 205 | 0.0 | 0.0 | 0.00 | 0.10 | 0.10 | 66 | 1031.2 |
| 20260831020436 | 15 | 179 | 1.6 | 3.2 | 0.00 | 0.10 | 0.10 | 70 | 1030.9 |
| 20260831015931 | 15 | 189 | 0.0 | 1.6 | 0.00 | 0.10 | 0.10 | 72 | 1030.9 |
| 20260831015427 | 15 | 203 | 0.0 | 0.0 | 0.00 | 0.10 | 0.10 | 72 | 1030.9 |
| 20260831014922 | 15 | 185 | 1.6 | 3.2 | 0.00 | 0.10 | 0.10 | 73 | 1030.8 |
| 20260831014423 | 15 | 221 | 0.0 | 0.0 | 0.00 | 0.10 | 0.10 | 71 | 1030.7 |
| 20260831013918 | 15 | 212 | 1.6 | 3.2 | 0.00 | 0.10 | 0.10 | 67 | 1030.7 |
| 20260831013414 | 16 | 152 | 1.6 | 3.2 | 0.00 | 0.10 | 0.10 | 69 | 1030.5 |
| 20260831012908 | 16 | 212 | 0.0 | 0.0 | 0.00 | 0.10 | 0.10 | 69 | 1030.9 |
| 20260831012403 | 16 | 191 | 1.6 | 1.6 | 0.00 | 0.10 | 0.10 | 71 | 1030.8 |
| 20260831011857 | 16 | 205 | 0.0 | 1.6 | 0.00 | 0.10 | 0.10 | 69 | 1030.5 |
| 20260831011352 | 17 | 220 | 0.0 | 0.0 | 0.00 | 0.10 | 0.10 | 66 | 1030.7 |
| 20260831010848 | 17 | 175 | 1.6 | 1.6 | 0.00 | 0.10 | 0.10 | 65 | 1030.7 |
| 20260831010348 | 17 | 193 | 1.6 | 1.6 | 0.00 | 0.10 | 0.10 | 67 | 1030.5 |
| 20260831005844 | 17 | 211 | 0.0 | 0.0 | 0.00 | 0.10 | 0.10 | 68 | 1030.8 |
| 20260831005339 | 18 | 218 | 0.0 | 0.0 | 0.00 | 0.10 | 0.10 | 66 | 1030.4 |
| 20260831004833 | 18 | 218 | 0.0 | 1.6 | 0.00 | 0.10 | 0.10 | 61 | 1030.8 |
| 20260831004330 | 18 | 196 | 0.0 | 0.0 | 0.00 | 0.10 | 0.10 | 62 | 1030.5 |
| 20260831003826 | 19 | 222 | 1.6 | 1.6 | 0.00 | 0.10 | 0.10 | 61 | 1030.4 |
| 20260831003322 | 19 | 222 | 0.0 | 1.6 | 0.00 | 0.10 | 0.10 | 58 | 1030.3 |
| 20260831002821 | 20 | 280 | 1.6 | 1.6 | 0.00 | 0.10 | 0.10 | 57 | 1030.5 |
| 20260831002320 | 20 | 249 | 4.8 | 4.8 | 0.00 | 0.10 | 0.10 | 58 | 1030.3 |
| 20260831001816 | 20 | 233 | 1.6 | 3.2 | 0.00 | 0.10 | 0.10 | 60 | 1030.3 |
| 20260831001311 | 20 | 8 | 4.8 | 4.8 | 0.00 | 0.10 | 0.10 | 59 | 1030.2 |
| 20260831000809 | 20 | 241 | 3.2 | 4.8 | 0.00 | 0.10 | 0.10 | 56 | 1030.4 |
| 20260831000310 | 20 | 325 | 6.4 | 8.0 | 0.00 | 0.10 | 0.10 | 54 | 1030.5 |
| 20260830235806 | 20 | 231 | 3.2 | 3.2 | 0.00 | 0.10 | 0.10 | 53 | 1030.3 |
| 20260830235305 | 20 | 210 | 4.8 | 4.8 | 0.00 | 0.10 | 0.10 | 55 | 1030.3 |
| 20260830234756 | 20 | 115 | 3.2 | 8.0 | 0.00 | 0.10 | 0.10 | 56 | 1030.5 |
| 20260830234253 | 21 | 223 | 0.0 | 0.0 | 0.00 | 0.10 | 0.10 | 52 | 1030.2 |
| 20260830233748 | 22 | 228 | 1.6 | 1.6 | 0.00 | 0.10 | 0.10 | 51 | 1030.3 |
| 20260830233243 | 21 | 241 | 1.6 | 3.2 | 0.00 | 0.10 | 0.10 | 53 | 1030.4 |
| 20260830232739 | 20 | 212 | 0.0 | 0.0 | 0.00 | 0.10 | 0.10 | 56 | 1030.4 |
| 20260830232235 | 20 | 217 | 0.0 | 0.0 | 0.00 | 0.10 | 0.10 | 60 | 1030.4 |
| 20260830231731 | 20 | 180 | 1.6 | 3.2 | 0.00 | 0.10 | 0.10 | 61 | 1030.8 |
| 20260830231230 | 19 | 214 | 0.0 | 0.0 | 0.00 | 0.10 | 0.10 | 61 | 1030.5 |
| 20260830230726 | 19 | 238 | 0.0 | 1.6 | 0.00 | 0.10 | 0.10 | 59 | 1030.7 |
| 20260830230221 | 20 | 310 | 4.8 | 4.8 | 0.00 | 0.10 | 0.10 | 60 | 1030.8 |
| 20260830225720 | 19 | 223 | 0.0 | 1.6 | 0.00 | 0.10 | 0.10 | 60 | 1030.5 |
| 20260830225215 | 18 | 216 | 0.0 | 1.6 | 0.00 | 0.10 | 0.10 | 61 | 1030.4 |
| 20260830224714 | 18 | 186 | 0.0 | 1.6 | 0.00 | 0.10 | 0.10 | 67 | 1030.7 |
| 20260830224210 | 17 | 230 | 0.0 | 1.6 | 0.00 | 0.10 | 0.10 | 70 | 1031.0 |
| 20260830223706 | 16 | 222 | 0.0 | 0.0 | 0.00 | 0.10 | 0.10 | 76 | 1030.7 |
| 20260830223202 | 16 | 184 | 1.6 | 3.2 | 0.00 | 0.10 | 0.10 | 73 | 1030.7 |
| 20260830222656 | 17 | 194 | 1.6 | 1.6 | 0.00 | 0.10 | 0.10 | 70 | 1030.5 |
| 20260830222152 | 17 | 222 | 0.0 | 0.0 | 0.00 | 0.10 | 0.10 | 69 | 1030.8 |
| 20260830221647 | 17 | 217 | 0.0 | 0.0 | 0.00 | 0.10 | 0.10 | 69 | 1030.5 |
| 20260830221144 | 17 | 218 | 0.0 | 0.0 | 0.00 | 0.10 | 0.10 | 69 | 1031.2 |
| 20260830220639 | 17 | 221 | 0.0 | 0.0 | 0.00 | 0.10 | 0.10 | 75 | 1031.0 |
| 20260830220138 | 16 | 213 | 0.0 | 0.0 | 0.00 | 0.10 | 0.10 | 77 | 1031.2 |
| 20260830215637 | 16 | 220 | 0.0 | 0.0 | 0.00 | 0.10 | 0.10 | 78 | 1031.2 |
| 20260830215131 | 15 | 219 | 0.0 | 0.0 | 0.00 | 0.10 | 0.10 | 76 | 1031.2 |
| 20260830214626 | 15 | 205 | 1.6 | 1.6 | 0.00 | 0.10 | 0.10 | 82 | 1030.9 |
| 20260830214121 | 14 | 175 | 3.2 | 3.2 | 0.00 | 0.10 | 0.10 | 88 | 1031.2 |
| 20260830213621 | 15 | 258 | 1.6 | 1.6 | 0.00 | 0.10 | 0.10 | 86 | 1031.0 |
| 20260830213116 | 13 | 237 | 0.0 | 1.6 | 0.00 | 0.10 | 0.10 | 87 | 1030.9 |
| 20260830212612 | 13 | 217 | 3.2 | 3.2 | 0.00 | 0.10 | 0.10 | 89 | 1031.2 |
| 20260830212107 | 13 | 229 | 3.2 | 4.8 | 0.00 | 0.10 | 0.10 | 89 | 1031.3 |
| 20260830211602 | 13 | 227 | 9.7 | 11.3 | 0.00 | 0.10 | 0.10 | 89 | 1031.4 |
| 20260830211101 | 12 | 235 | 9.7 | 12.9 | 0.18 | 0.10 | 0.10 | 90 | 1031.3 |
| 20260830210557 | 12 | 227 | 8.0 | 11.3 | 0.18 | 0.10 | 0.10 | 94 | 1031.7 |
| 20260830210056 | 13 | 213 | 1.6 | 3.2 | 0.13 | 0.08 | 0.08 | 93 | 1031.8 |
| 20260830205553 | 13 | 241 | 4.8 | 4.8 | 0.43 | 0.08 | 0.08 | 89 | 1031.5 |
| 20260830205050 | 14 | 282 | 11.3 | 12.9 | 0.30 | 0.05 | 0.05 | 82 | 1031.4 |
| 20260830204549 | 15 | 191 | 8.0 | 9.7 | 0.00 | 0.00 | 0.00 | 70 | 1031.2 |
| 20260830204048 | 16 | 246 | 17.7 | 22.5 | 0.00 | 0.00 | 0.00 | 64 | 1031.2 |
| 20260830203544 | 19 | 272 | 16.1 | 17.7 | 0.00 | 0.00 | 0.00 | 57 | 1030.7 |
| 20260830203044 | 20 | 216 | 11.3 | 12.9 | 0.00 | 0.00 | 0.00 | 57 | 1030.4 |
| 20260830202539 | 20 | 258 | 12.9 | 17.7 | 0.00 | 0.00 | 0.00 | 57 | 1030.4 |
| 20260830202035 | 20 | 3 | 11.3 | 16.1 | 0.00 | 0.00 | 0.00 | 57 | 1029.5 |
| 20260830201534 | 21 | 256 | 3.2 | 4.8 | 0.00 | 0.00 | 0.00 | 59 | 1029.8 |
| 20260830201029 | 21 | 276 | 1.6 | 3.2 | 0.00 | 0.00 | 0.00 | 54 | 1029.5 |
| 20260830200524 | 22 | 223 | 3.2 | 3.2 | 0.00 | 0.00 | 0.00 | 49 | 1029.3 |
| 20260830200023 | 23 | 331 | 0.0 | 1.6 | 0.00 | 0.00 | 0.00 | 45 | 1029.3 |
| 20260830195519 | 23 | 226 | 1.6 | 1.6 | 0.00 | 0.00 | 0.00 | 43 | 1029.3 |
| 20260830195017 | 23 | 245 | 1.6 | 1.6 | 0.00 | 0.00 | 0.00 | 43 | 1029.0 |
| 20260830194516 | 23 | 122 | 1.6 | 3.2 | 0.00 | 0.00 | 0.00 | 42 | 1029.1 |
| 20260830194011 | 23 | 240 | 1.6 | 3.2 | 0.00 | 0.00 | 0.00 | 42 | 1029.4 |
| 20260830193510 | 23 | 43 | 1.6 | 1.6 | 0.00 | 0.00 | 0.00 | 43 | 1028.8 |
| 20260830193005 | 23 | 132 | 1.6 | 1.6 | 0.00 | 0.00 | 0.00 | 42 | 1028.9 |
| 20260830192501 | 23 | 191 | 1.6 | 3.2 | 0.00 | 0.00 | 0.00 | 43 | 1028.9 |
| 20260830191955 | 23 | 218 | 1.6 | 3.2 | 0.00 | 0.00 | 0.00 | 43 | 1029.0 |
| 20260830191450 | 24 | 157 | 3.2 | 4.8 | 0.00 | 0.00 | 0.00 | 41 | 1028.6 |
| 20260830190945 | 25 | 30 | 1.6 | 3.2 | 0.00 | 0.00 | 0.00 | 40 | 1028.5 |
| 20260830190440 | 25 | 245 | 3.2 | 3.2 | 0.00 | 0.00 | 0.00 | 41 | 1028.8 |
| 20260830185939 | 25 | 179 | 3.2 | 3.2 | 0.00 | 0.00 | 0.00 | 39 | 1028.8 |
| 20260830185435 | 25 | 213 | 1.6 | 3.2 | 0.00 | 0.00 | 0.00 | 42 | 1028.8 |
| 20260830184931 | 25 | 223 | 3.2 | 3.2 | 0.00 | 0.00 | 0.00 | 42 | 1029.3 |
| 20260830184429 | 25 | 217 | 0.0 | 1.6 | 0.00 | 0.00 | 0.00 | 42 | 1029.3 |
| 20260830183929 | 22 | 216 | 0.0 | 0.0 | 0.00 | 0.00 | 0.00 | 48 | 1029.5 |
| 20260830183424 | 22 | 294 | 4.8 | 4.8 | 0.00 | 0.00 | 0.00 | 49 | 1029.3 |
| 20260830182920 | 21 | 219 | 0.0 | 0.0 | 0.00 | 0.00 | 0.00 | 52 | 1029.8 |
| 20260830182415 | 21 | 223 | 0.0 | 1.6 | 0.00 | 0.00 | 0.00 | 49 | 1029.8 |
| 20260830181911 | 21 | 223 | 0.0 | 1.6 | 0.00 | 0.00 | 0.00 | 49 | 1029.8 |
| 20260830181406 | 21 | 215 | 0.0 | 0.0 | 0.00 | 0.00 | 0.00 | 49 | 1029.9 |
| 20260830180901 | 21 | 216 | 1.6 | 1.6 | 0.00 | 0.00 | 0.00 | 48 | 1029.8 |
| 20260830180400 | 22 | 286 | 6.4 | 8.0 | 0.00 | 0.00 | 0.00 | 50 | 1029.7 |
| 20260830175859 | 22 | 78 | 4.8 | 9.7 | 0.00 | 0.00 | 0.00 | 47 | 1029.8 |
| 20260830175359 | 22 | 281 | 3.2 | 4.8 | 0.00 | 0.00 | 0.00 | 48 | 1029.9 |
| 20260830174854 | 22 | 221 | 1.6 | 3.2 | 0.00 | 0.00 | 0.00 | 51 | 1029.9 |
| 20260830174350 | 22 | 18 | 3.2 | 3.2 | 0.00 | 0.00 | 0.00 | 48 | 1029.9 |
| 20260830173845 | 22 | 256 | 1.6 | 3.2 | 0.00 | 0.00 | 0.00 | 48 | 1030.0 |
| 20260830173340 | 22 | 272 | 1.6 | 1.6 | 0.00 | 0.00 | 0.00 | 48 | 1029.9 |
| 20260830172836 | 22 | 4 | 1.6 | 3.2 | 0.00 | 0.00 | 0.00 | 47 | 1029.8 |
| 20260830172333 | 21 | 220 | 1.6 | 3.2 | 0.00 | 0.00 | 0.00 | 48 | 1030.0 |
| 20260830171828 | 21 | 218 | 0.0 | 1.6 | 0.00 | 0.00 | 0.00 | 50 | 1030.2 |
| 20260830171324 | 22 | 221 | 4.8 | 4.8 | 0.00 | 0.00 | 0.00 | 50 | 1030.3 |
| 20260830170818 | 22 | 205 | 0.0 | 1.6 | 0.00 | 0.00 | 0.00 | 46 | 1030.3 |
| 20260830170317 | 22 | 213 | 1.6 | 1.6 | 0.00 | 0.00 | 0.00 | 46 | 1030.0 |
| 20260830165811 | 21 | 338 | 6.4 | 9.7 | 0.00 | 0.00 | 0.00 | 48 | 1030.3 |
| 20260830165307 | 21 | 181 | 4.8 | 4.8 | 0.00 | 0.00 | 0.00 | 49 | 1030.5 |
| 20260830164803 | 21 | 211 | 3.2 | 3.2 | 0.00 | 0.00 | 0.00 | 55 | 1030.4 |
| 20260830164258 | 21 | 228 | 4.8 | 4.8 | 0.00 | 0.00 | 0.00 | 49 | 1030.4 |
| 20260830163749 | 21 | 354 | 0.0 | 1.6 | 0.00 | 0.00 | 0.00 | 50 | 1030.7 |
| 20260830163244 | 20 | 199 | 4.8 | 4.8 | 0.00 | 0.00 | 0.00 | 53 | 1030.5 |
| 20260830162738 | 20 | 216 | 0.0 | 1.6 | 0.00 | 0.00 | 0.00 | 54 | 1030.4 |
| 20260830162235 | 20 | 243 | 3.2 | 3.2 | 0.00 | 0.00 | 0.00 | 54 | 1030.4 |
| 20260830161731 | 20 | 316 | 3.2 | 8.0 | 0.00 | 0.00 | 0.00 | 56 | 1030.7 |
| 20260830161224 | 20 | 323 | 4.8 | 8.0 | 0.00 | 0.00 | 0.00 | 56 | 1030.5 |
| 20260830160720 | 18 | 212 | 0.0 | 0.0 | 0.00 | 0.00 | 0.00 | 56 | 1030.5 |
| 20260830160220 | 18 | 359 | 4.8 | 8.0 | 0.00 | 0.00 | 0.00 | 57 | 1030.8 |
| 20260830155717 | 18 | 39 | 1.6 | 1.6 | 0.00 | 0.00 | 0.00 | 56 | 1031.0 |
| 20260830155212 | 17 | 242 | 0.0 | 0.0 | 0.00 | 0.00 | 0.00 | 57 | 1031.0 |
| 20260830154707 | 17 | 302 | 0.0 | 1.6 | 0.00 | 0.00 | 0.00 | 59 | 1030.7 |
| 20260830154203 | 17 | 11 | 9.7 | 9.7 | 0.00 | 0.00 | 0.00 | 61 | 1030.7 |
| 20260830153659 | 17 | 294 | 6.4 | 9.7 | 0.00 | 0.00 | 0.00 | 63 | 1030.9 |
| 20260830153159 | 17 | 6 | 9.7 | 12.9 | 0.00 | 0.00 | 0.00 | 65 | 1030.8 |
| 20260830152658 | 18 | 125 | 0.0 | 0.0 | 0.00 | 0.00 | 0.00 | 62 | 1030.5 |
| 20260830152158 | 17 | 205 | 0.0 | 0.0 | 0.00 | 0.00 | 0.00 | 63 | 1030.5 |
| 20260830151653 | 17 | 219 | 0.0 | 1.6 | 0.00 | 0.00 | 0.00 | 63 | 1030.4 |
| 20260830151152 | 17 | 225 | 1.6 | 1.6 | 0.00 | 0.00 | 0.00 | 60 | 1030.5 |
| 20260830150648 | 17 | 234 | 1.6 | 3.2 | 0.00 | 0.00 | 0.00 | 60 | 1030.5 |
| 20260830150142 | 17 | 266 | 1.6 | 3.2 | 0.00 | 0.00 | 0.00 | 61 | 1030.3 |
| 20260830145641 | 17 | 236 | 0.0 | 0.0 | 0.00 | 0.00 | 0.00 | 65 | 1030.3 |
| 20260830145137 | 17 | 217 | 0.0 | 0.0 | 0.00 | 0.00 | 0.00 | 61 | 1030.3 |
| 20260830144632 | 17 | 204 | 0.0 | 0.0 | 0.00 | 0.00 | 0.00 | 70 | 1030.4 |
| 20260830144128 | 16 | 216 | 0.0 | 0.0 | 0.00 | 0.00 | 0.00 | 69 | 1030.2 |
| 20260830143624 | 16 | 219 | 0.0 | 1.6 | 0.00 | 0.00 | 0.00 | 67 | 1030.0 |
| 20260830143121 | 16 | 189 | 1.6 | 1.6 | 0.00 | 0.00 | 0.00 | 61 | 1030.2 |
| 20260830142617 | 15 | 183 | 0.0 | 0.0 | 0.00 | 0.00 | 0.00 | 67 | 1030.3 |
| 20260830142112 | 15 | 219 | 0.0 | 0.0 | 0.00 | 0.00 | 0.00 | 69 | 1030.3 |
| 20260830141607 | 15 | 224 | 0.0 | 1.6 | 0.00 | 0.00 | 0.00 | 71 | 1030.5 |
| 20260830141102 | 13 | 218 | 0.0 | 0.0 | 0.00 | 0.00 | 0.00 | 70 | 1030.3 |
| 20260830140557 | 13 | 223 | 0.0 | 0.0 | 0.00 | 0.00 | 0.00 | 74 | 1030.4 |
| 20260830140052 | 12 | 213 | 0.0 | 0.0 | 0.00 | 0.00 | 0.00 | 75 | 1030.5 |
| 20260830135547 | 12 | 206 | 0.0 | 1.6 | 0.00 | 0.00 | 0.00 | 76 | 1030.4 |
| 20260830135042 | 12 | 228 | 0.0 | 0.0 | 0.00 | 0.00 | 0.00 | 76 | 1030.4 |
| 20260830134538 | 12 | 217 | 0.0 | 0.0 | 0.00 | 0.00 | 0.00 | 77 | 1030.3 |
| 20260830134033 | 11 | 220 | 0.0 | 0.0 | 0.00 | 0.00 | 0.00 | 78 | 1030.2 |
| 20260830133529 | 11 | 204 | 0.0 | 0.0 | 0.00 | 0.00 | 0.00 | 78 | 1030.4 |
| 20260830133024 | 11 | 221 | 0.0 | 0.0 | 0.00 | 0.00 | 0.00 | 81 | 1030.3 |
| 20260830132520 | 11 | 196 | 0.0 | 0.0 | 0.00 | 0.00 | 0.00 | 80 | 1030.3 |
| 20260830132020 | 11 | 221 | 0.0 | 0.0 | 0.00 | 0.00 | 0.00 | 81 | 1030.3 |
| 20260830131519 | 11 | 226 | 0.0 | 0.0 | 0.00 | 0.00 | 0.00 | 80 | 1030.2 |
| 20260830131014 | 10 | 208 | 0.0 | 0.0 | 0.00 | 0.00 | 0.00 | 80 | 1030.3 |
| 20260830130509 | 10 | 194 | 0.0 | 1.6 | 0.00 | 0.00 | 0.00 | 80 | 1029.8 |
| 20260830130009 | 10 | 227 | 1.6 | 1.6 | 0.00 | 0.00 | 0.00 | 81 | 1030.2 |
| 20260830125504 | 10 | 222 | 0.0 | 0.0 | 0.00 | 0.00 | 0.00 | 81 | 1030.0 |
| 20260830125002 | 10 | 177 | 0.0 | 1.6 | 0.00 | 0.00 | 0.00 | 81 | 1029.8 |
| 20260830124457 | 10 | 193 | 1.6 | 3.2 | 0.00 | 0.00 | 0.00 | 81 | 1029.5 |
| 20260830123953 | 10 | 231 | 3.2 | 3.2 | 0.00 | 0.00 | 0.00 | 82 | 1029.5 |
| 20260830123449 | 10 | 235 | 1.6 | 1.6 | 0.00 | 0.00 | 0.00 | 80 | 1029.8 |
| 20260830122948 | 10 | 233 | 0.0 | 0.0 | 0.00 | 0.00 | 0.00 | 80 | 1029.5 |
| 20260830122447 | 10 | 220 | 0.0 | 0.0 | 0.00 | 0.00 | 0.00 | 81 | 1029.4 |
| 20260830121942 | 10 | 199 | 1.6 | 1.6 | 0.00 | 0.00 | 0.00 | 82 | 1029.0 |
| 20260830121437 | 10 | 169 | 3.2 | 3.2 | 0.00 | 0.00 | 0.00 | 80 | 1029.5 |
| 20260830120932 | 10 | 130 | 4.8 | 4.8 | 0.00 | 0.00 | 0.00 | 83 | 1029.5 |
| 20260830120427 | 10 | 208 | 0.0 | 0.0 | 0.00 | 0.00 | 0.00 | 81 | 1029.0 |
| 20260830115924 | 10 | 228 | 0.0 | 0.0 | 0.00 | 0.00 | 0.00 | 80 | 1028.6 |
| 20260830115420 | 10 | 229 | 0.0 | 0.0 | 0.00 | 0.00 | 0.00 | 80 | 1028.9 |
| 20260830114915 | 10 | 237 | 0.0 | 0.0 | 0.00 | 0.00 | 0.00 | 79 | 1028.8 |
| 20260830114412 | 10 | 222 | 0.0 | 0.0 | 0.00 | 0.00 | 0.00 | 80 | 1028.6 |
| 20260830113911 | 10 | 210 | 0.0 | 0.0 | 0.00 | 0.00 | 0.00 | 79 | 1028.8 |
| 20260830113406 | 10 | 184 | 0.0 | 0.0 | 0.00 | 0.00 | 0.00 | 80 | 1028.8 |
| 20260830112902 | 10 | 140 | 3.2 | 3.2 | 0.00 | 0.00 | 0.00 | 81 | 1028.9 |
| 20260830112357 | 10 | 219 | 0.0 | 0.0 | 0.00 | 0.00 | 0.00 | 81 | 1029.0 |
| 20260830111853 | 10 | 221 | 0.0 | 0.0 | 0.00 | 0.00 | 0.00 | 81 | 1028.6 |
| 20260830111343 | 10 | 222 | 0.0 | 0.0 | 0.00 | 0.00 | 0.00 | 81 | 1029.0 |
| 20260830110843 | 10 | 223 | 0.0 | 0.0 | 0.00 | 0.00 | 0.00 | 80 | 1028.9 |
| 20260830110340 | 10 | 198 | 0.0 | 0.0 | 0.00 | 0.00 | 0.00 | 79 | 1028.9 |
| 20260830105838 | 11 | 201 | 0.0 | 0.0 | 0.00 | 0.00 | 0.00 | 78 | 1028.8 |
| 20260830105335 | 11 | 217 | 0.0 | 0.0 | 0.00 | 0.00 | 0.00 | 77 | 1029.3 |
| 20260830104831 | 11 | 215 | 0.0 | 0.0 | 0.00 | 0.00 | 0.00 | 76 | 1029.5 |
| 20260830104328 | 10 | 193 | 0.0 | 1.6 | 0.00 | 0.00 | 0.00 | 78 | 1029.1 |
| 20260830103826 | 11 | 221 | 0.0 | 0.0 | 0.00 | 0.00 | 0.00 | 77 | 1029.0 |
| 20260830103323 | 11 | 177 | 1.6 | 1.6 | 0.00 | 0.00 | 0.00 | 77 | 1029.3 |
| 20260830102820 | 11 | 199 | 0.0 | 0.0 | 0.00 | 0.00 | 0.00 | 77 | 1029.1 |
| 20260830102316 | 11 | 196 | 0.0 | 0.0 | 0.00 | 0.00 | 0.00 | 77 | 1029.0 |
| 20260830101812 | 11 | 200 | 0.0 | 0.0 | 0.00 | 0.00 | 0.00 | 75 | 1029.1 |
| 20260830101307 | 11 | 217 | 0.0 | 0.0 | 0.00 | 0.00 | 0.00 | 77 | 1029.0 |
| 20260830100806 | 11 | 221 | 0.0 | 0.0 | 0.00 | 0.00 | 0.00 | 76 | 1029.1 |
| 20260830100301 | 11 | 223 | 0.0 | 0.0 | 0.00 | 0.00 | 0.00 | 77 | 1028.8 |
| 20260830095800 | 12 | 220 | 0.0 | 0.0 | 0.00 | 0.00 | 0.00 | 74 | 1029.0 |
| 20260830095256 | 12 | 223 | 0.0 | 0.0 | 0.00 | 0.00 | 0.00 | 74 | 1028.8 |
| 20260830094752 | 12 | 208 | 1.6 | 1.6 | 0.00 | 0.00 | 0.00 | 72 | 1028.9 |
| 20260830094248 | 12 | 201 | 1.6 | 1.6 | 0.00 | 0.00 | 0.00 | 74 | 1028.8 |